Time;durP1;ratioP1;P1;durP2;ratioP2;P2;SDS_P1;SDS_P2;PMS_P1;PMS_P2;Temp;Humidity;BMP_temperature;BMP_pressure;BME280_temperature;BME280_humidity;BME280_pressure;Samples;Min_cycle;Max_cycle;Signal;HPM_P1;HPM_P2
2022/01/11 00:00:07;;;;;;;;;18.00;18.00;;;;;7.95;63.01;102539.44;5067075;28;45529;-62
2022/01/11 00:02:35;;;;;;;;;24.75;16.50;;;;;7.93;62.78;102529.66;5064278;28;45453;-62
2022/01/11 00:05:01;;;;;;;;;18.75;17.00;;;;;7.92;62.95;102535.88;5076122;28;46868;-62
2022/01/11 00:07:29;;;;;;;;;20.25;18.25;;;;;7.90;62.68;102532.31;5071078;28;45370;-62
2022/01/11 00:09:56;;;;;;;;;17.75;15.50;;;;;7.85;62.85;102526.97;5062318;28;45299;-61
2022/01/11 00:12:22;;;;;;;;;17.75;17.00;;;;;7.84;62.70;102521.63;5075609;28;45309;-61
2022/01/11 00:14:47;;;;;;;;;29.50;24.25;;;;;7.81;62.56;102526.94;5062594;28;45307;-62
2022/01/11 00:17:12;;;;;;;;;19.50;15.25;;;;;7.78;62.95;102533.09;5069549;28;45205;-62
2022/01/11 00:19:38;;;;;;;;;26.25;23.50;;;;;7.79;62.91;102541.09;5082020;28;45212;-62
2022/01/11 00:22:07;;;;;;;;;29.25;27.50;;;;;7.78;63.05;102528.69;5075133;28;45555;-62
2022/01/11 00:24:35;;;;;;;;;28.75;27.75;;;;;7.85;62.89;102534.94;5062156;28;46175;-62
2022/01/11 00:27:04;;;;;;;;;26.75;26.25;;;;;7.86;63.31;102536.72;5062211;28;45535;-61
2022/01/11 00:29:30;;;;;;;;;33.75;29.00;;;;;7.86;63.30;102539.38;5068638;28;45336;-62
2022/01/11 00:32:00;;;;;;;;;26.00;24.75;;;;;7.89;62.79;102538.53;5080344;28;45496;-62
2022/01/11 00:34:28;;;;;;;;;24.00;22.25;;;;;7.87;62.93;102527.88;5082328;28;47162;-62
2022/01/11 00:36:54;;;;;;;;;29.00;21.50;;;;;7.90;63.08;102538.53;5069394;28;45234;-62
2022/01/11 00:39:19;;;;;;;;;21.75;20.25;;;;;7.90;62.98;102537.63;5068552;28;45678;-62
2022/01/11 00:41:45;;;;;;;;;22.75;17.00;;;;;7.87;62.97;102521.63;5066818;28;45470;-61
2022/01/11 00:44:12;;;;;;;;;17.25;17.00;;;;;7.91;62.63;102537.63;5074603;28;45467;-61
2022/01/11 00:46:40;;;;;;;;;18.50;17.00;;;;;7.90;62.87;102527.91;5062155;28;45739;-62
2022/01/11 00:49:05;;;;;;;;;17.00;13.00;;;;;7.88;62.63;102528.75;5070688;28;45365;-62
2022/01/11 00:51:31;;;;;;;;;17.75;17.50;;;;;7.89;62.73;102536.75;5078067;27;45480;-61
2022/01/11 00:53:57;;;;;;;;;22.00;17.75;;;;;7.91;62.70;102548.28;5062915;27;45349;-62
2022/01/11 00:56:22;;;;;;;;;20.00;17.25;;;;;7.86;62.81;102546.47;5061885;28;45227;-62
2022/01/11 00:58:48;;;;;;;;;18.75;18.50;;;;;7.74;62.97;102524.22;5079449;28;45503;-62
2022/01/11 01:01:14;;;;;;;;;19.50;18.75;;;;;7.84;62.25;102534.94;5069201;27;45398;-62
2022/01/11 01:03:40;;;;;;;;;20.25;18.50;;;;;7.84;62.80;102537.59;5064280;28;46260;-61
2022/01/11 01:06:05;;;;;;;;;26.75;22.25;;;;;7.84;62.74;102538.47;5072787;28;45284;-61
2022/01/11 01:08:31;;;;;;;;;26.00;23.50;;;;;7.85;62.94;102534.03;5074784;28;45157;-61
2022/01/11 01:10:56;;;;;;;;;21.75;19.75;;;;;7.87;62.86;102542.91;5070141;28;45456;-62
2022/01/11 01:13:26;;;;;;;;;20.25;15.75;;;;;7.86;62.88;102550.00;5064422;28;45299;-62
2022/01/11 01:15:54;;;;;;;;;23.50;23.25;;;;;7.82;62.91;102547.31;5061757;28;45603;-62
2022/01/11 01:18:23;;;;;;;;;17.00;14.50;;;;;7.84;62.98;102553.53;5078110;28;45232;-61
2022/01/11 01:20:50;;;;;;;;;21.75;20.25;;;;;7.83;62.99;102557.94;5079272;28;45425;-61
2022/01/11 01:23:16;;;;;;;;;19.25;17.50;;;;;7.77;62.96;102544.63;5073719;28;46116;-61
2022/01/11 01:25:43;;;;;;;;;24.00;17.75;;;;;7.86;63.03;102557.09;5066294;28;45445;-61
2022/01/11 01:28:09;;;;;;;;;19.00;18.50;;;;;7.87;62.74;102558.84;5074409;28;45307;-61
2022/01/11 01:30:35;;;;;;;;;23.50;22.00;;;;;7.83;62.59;102557.94;5068320;28;45458;-61
2022/01/11 01:33:01;;;;;;;;;19.00;14.00;;;;;7.85;62.87;102550.00;5080904;27;46089;-61
2022/01/11 01:35:31;;;;;;;;;23.00;19.50;;;;;7.81;62.63;102549.09;5061651;28;45661;-62
2022/01/11 01:37:58;;;;;;;;;24.25;19.00;;;;;7.79;62.57;102551.72;5061275;28;45317;-62
2022/01/11 01:40:23;;;;;;;;;25.25;22.25;;;;;7.80;62.70;102555.25;5073009;28;45398;-62
2022/01/11 01:42:51;;;;;;;;;23.50;20.50;;;;;7.83;62.98;102562.38;5069068;28;46413;-61
2022/01/11 01:45:16;;;;;;;;;27.75;21.25;;;;;7.75;62.81;102557.91;5061126;28;45227;-62
2022/01/11 01:47:42;;;;;;;;;20.50;18.25;;;;;7.85;62.71;102573.91;5071040;28;45309;-61
2022/01/11 01:50:08;;;;;;;;;27.00;24.50;;;;;7.86;62.55;102570.41;5075720;27;45791;-62
2022/01/11 01:52:34;;;;;;;;;29.25;24.00;;;;;7.87;62.87;102564.19;5061257;28;45307;-61
2022/01/11 01:55:00;;;;;;;;;23.00;21.50;;;;;7.83;62.78;102567.72;5060788;28;45430;-61
2022/01/11 01:57:26;;;;;;;;;24.00;21.50;;;;;7.82;62.59;102572.16;5063889;28;45465;-62
2022/01/11 01:59:51;;;;;;;;;28.50;24.75;;;;;7.81;62.63;102574.78;5064965;28;45264;-61
2022/01/11 02:02:17;;;;;;;;;33.50;31.00;;;;;7.82;62.66;102579.22;5062546;28;45729;-62
2022/01/11 02:04:42;;;;;;;;;32.50;28.75;;;;;7.81;62.84;102580.97;5061084;28;45386;-61
2022/01/11 02:07:08;;;;;;;;;18.25;18.00;;;;;7.82;62.86;102590.75;5062345;28;45260;-61
2022/01/11 02:09:35;;;;;;;;;29.75;24.00;;;;;7.79;62.27;102590.72;5072431;28;45257;-61
2022/01/11 02:12:00;;;;;;;;;23.00;20.75;;;;;7.79;62.84;102585.41;5072354;28;46178;-61
2022/01/11 02:14:26;;;;;;;;;34.50;31.00;;;;;7.77;62.63;102588.03;5063299;28;45306;-61
2022/01/11 02:16:53;;;;;;;;;27.50;22.00;;;;;7.86;62.72;102589.00;5062435;28;45550;-62
2022/01/11 02:19:18;;;;;;;;;22.75;21.00;;;;;7.88;62.85;102595.22;5079235;28;45623;-61
2022/01/11 02:21:43;;;;;;;;;28.50;24.50;;;;;7.91;62.62;102597.91;5063757;28;46187;-61
2022/01/11 02:24:08;;;;;;;;;29.00;23.50;;;;;7.82;62.78;102577.47;5060382;28;45339;-61
2022/01/11 02:26:34;;;;;;;;;28.25;25.25;;;;;7.84;62.88;102585.44;5062836;28;45417;-62
2022/01/11 02:28:59;;;;;;;;;27.75;23.00;;;;;7.85;62.23;102595.19;5073231;28;45647;-61
2022/01/11 02:31:25;;;;;;;;;21.25;20.00;;;;;7.85;62.64;102597.84;5076353;28;46259;-62
2022/01/11 02:33:57;;;;;;;;;28.75;23.75;;;;;7.75;62.39;102591.56;5074789;27;45357;-61
2022/01/11 02:36:29;;;;;;;;;21.75;18.25;;;;;7.69;62.61;102600.38;5060495;28;45231;-61
2022/01/11 02:38:55;;;;;;;;;25.00;21.50;;;;;7.66;62.45;102595.03;5073958;28;45403;-61
2022/01/11 02:41:22;;;;;;;;;20.50;18.75;;;;;7.71;62.57;102603.06;5068208;28;45473;-61
2022/01/11 02:43:48;;;;;;;;;26.50;22.75;;;;;7.72;62.53;102597.75;5061210;28;45625;-61
2022/01/11 02:46:19;;;;;;;;;25.00;23.00;;;;;7.75;62.45;102602.19;5060489;28;45342;-61
2022/01/11 02:48:46;;;;;;;;;26.50;24.00;;;;;7.68;62.42;102597.69;5066674;28;45579;-62
2022/01/11 02:51:11;;;;;;;;;24.50;19.00;;;;;7.67;62.52;102601.22;5079591;27;46013;-61
2022/01/11 02:53:41;;;;;;;;;23.50;22.00;;;;;7.66;62.04;102608.31;5060054;28;45236;-62
2022/01/11 02:56:07;;;;;;;;;24.00;19.00;;;;;7.62;62.11;102598.53;5060260;28;45265;-61
2022/01/11 02:58:32;;;;;;;;;17.50;16.00;;;;;7.64;62.18;102590.59;5074054;28;45217;-61
2022/01/11 03:00:58;;;;;;;;;22.75;19.50;;;;;7.61;62.09;102594.97;5068584;28;46113;-61
2022/01/11 03:03:23;;;;;;;;;28.25;22.75;;;;;7.58;62.10;102597.63;5062630;28;45244;-62
2022/01/11 03:05:55;;;;;;;;;28.00;23.75;;;;;7.51;62.33;102597.53;5060192;28;45318;-62
2022/01/11 03:08:22;;;;;;;;;25.25;22.00;;;;;7.52;62.31;102602.88;5072521;28;45489;-62
2022/01/11 03:10:49;;;;;;;;;26.00;25.25;;;;;7.52;62.09;102600.22;5059666;28;46228;-61
2022/01/11 03:13:18;;;;;;;;;24.75;18.25;;;;;7.51;62.43;102603.75;5059964;28;45518;-62
2022/01/11 03:15:46;;;;;;;;;21.25;18.00;;;;;7.50;62.22;102614.34;5060227;28;45379;-62
2022/01/11 03:18:13;;;;;;;;;23.00;18.00;;;;;7.42;61.91;102609.84;5074268;28;45383;-62
2022/01/11 03:20:40;;;;;;;;;23.75;18.50;;;;;7.36;62.53;102616.88;5059764;28;45244;-61
2022/01/11 03:23:06;;;;;;;;;19.00;15.50;;;;;7.33;62.44;102616.81;5059814;28;46638;-62
2022/01/11 03:25:32;;;;;;;;;24.50;19.50;;;;;7.33;62.21;102619.47;5059372;28;45310;-61
2022/01/11 03:27:57;;;;;;;;;19.75;17.75;;;;;7.32;62.70;102623.91;5060783;28;45452;-61
2022/01/11 03:30:23;;;;;;;;;22.75;19.25;;;;;7.31;62.45;102619.47;5070570;28;45533;-61
2022/01/11 03:32:49;;;;;;;;;28.75;22.25;;;;;7.31;62.60;102616.81;5080022;27;45446;-61
2022/01/11 03:35:15;;;;;;;;;22.75;18.75;;;;;7.33;62.53;102624.81;5062988;28;45409;-61
2022/01/11 03:37:42;;;;;;;;;26.25;22.25;;;;;7.32;62.62;102621.25;5062278;28;45457;-61
2022/01/11 03:40:12;;;;;;;;;23.00;19.25;;;;;7.30;62.41;102623.03;5075551;28;46345;-61
2022/01/11 03:42:38;;;;;;;;;21.25;16.75;;;;;7.26;62.35;102620.31;5081842;28;45311;-61
2022/01/11 03:45:06;;;;;;;;;19.00;16.75;;;;;7.21;62.33;102609.63;5072261;28;45484;-61
2022/01/11 03:47:32;;;;;;;;;16.50;9.25;;;;;7.32;62.52;102638.97;5063181;28;45405;-62
2022/01/11 03:49:58;;;;;;;;;27.75;19.50;;;;;7.26;62.58;102631.81;5076339;28;45338;-61
2022/01/11 03:52:24;;;;;;;;;21.50;18.75;;;;;7.20;62.67;102631.72;5070727;28;45310;-61
2022/01/11 03:57:25;;;;;;;;;20.25;18.25;;;;;7.18;62.33;102634.41;5076337;28;45389;-61
2022/01/11 03:59:51;;;;;;;;;21.75;19.00;;;;;7.21;62.85;102638.84;5063089;28;45330;-61
2022/01/11 04:02:17;;;;;;;;;21.75;18.50;;;;;7.18;62.85;102636.13;5063039;28;45230;-61
2022/01/11 04:04:43;;;;;;;;;25.50;19.25;;;;;7.23;62.38;102629.13;5063205;28;45399;-62
2022/01/11 04:07:09;;;;;;;;;22.50;22.25;;;;;7.15;62.42;102626.38;5071831;28;45578;-61
2022/01/11 04:09:35;;;;;;;;;17.00;16.50;;;;;7.17;62.95;102629.94;5062572;28;46549;-61
2022/01/11 04:12:00;;;;;;;;;22.25;16.75;;;;;7.19;62.53;102627.31;5062539;28;46042;-62
2022/01/11 04:14:25;;;;;;;;;20.75;20.00;;;;;7.15;62.70;102622.81;5062971;28;45409;-62
2022/01/11 04:16:52;;;;;;;;;26.50;19.75;;;;;7.17;62.32;102613.13;5062528;28;45454;-61
2022/01/11 04:19:19;;;;;;;;;21.50;20.50;;;;;7.09;62.74;102607.72;5079388;28;45635;-61
2022/01/11 04:21:44;;;;;;;;;20.75;18.50;;;;;7.09;62.64;102610.38;5067887;28;46985;-61
2022/01/11 04:24:12;;;;;;;;;32.75;26.25;;;;;7.15;62.40;102623.72;5062679;28;45401;-61
2022/01/11 04:26:37;;;;;;;;;26.00;18.00;;;;;7.15;62.39;102641.41;5062424;28;45302;-61
2022/01/11 04:29:03;;;;;;;;;24.75;22.75;;;;;7.03;62.40;102612.94;5062472;28;46151;-61
2022/01/11 04:31:29;;;;;;;;;23.75;20.75;;;;;7.16;63.06;102629.91;5082322;28;45535;-61
2022/01/11 04:33:54;;;;;;;;;19.25;19.25;;;;;7.15;62.65;102628.13;5074600;28;45305;-61
2022/01/11 04:36:20;;;;;;;;;23.75;21.50;;;;;7.16;62.69;102630.81;5063285;28;45401;-61
2022/01/11 04:38:46;;;;;;;;;20.50;16.50;;;;;7.16;62.62;102630.81;5066360;28;45486;-61
2022/01/11 04:41:11;;;;;;;;;25.00;18.75;;;;;7.14;63.03;102624.59;5066863;28;45377;-61
2022/01/11 04:43:36;;;;;;;;;23.50;19.75;;;;;7.22;62.71;102633.53;5075414;28;45313;-62
2022/01/11 04:46:02;;;;;;;;;24.75;22.50;;;;;7.23;61.98;102631.78;5062429;28;45291;-61
2022/01/11 04:48:29;;;;;;;;;14.50;13.50;;;;;7.26;62.50;102653.06;5062903;28;45485;-61
2022/01/11 04:50:55;;;;;;;;;16.50;16.50;;;;;7.21;62.72;102642.38;5082519;27;45607;-61
2022/01/11 04:53:20;;;;;;;;;27.75;23.25;;;;;7.18;61.93;102636.13;5064291;28;45192;-62
2022/01/11 04:55:45;;;;;;;;;27.00;24.25;;;;;7.16;62.54;102640.53;5061641;28;45512;-61
2022/01/11 04:58:11;;;;;;;;;27.50;23.00;;;;;7.14;62.31;102648.50;5075553;28;46039;-61
2022/01/11 05:00:37;;;;;;;;;26.25;22.25;;;;;7.13;62.05;102643.16;5060708;28;45236;-61
2022/01/11 05:03:02;;;;;;;;;23.50;22.75;;;;;7.07;61.80;102637.75;5068395;28;45270;-61
2022/01/11 05:05:29;;;;;;;;;27.25;27.25;;;;;7.16;61.91;102657.38;5062200;28;45355;-61
2022/01/11 05:07:56;;;;;;;;;30.00;26.00;;;;;7.18;62.44;102668.00;5075177;28;45385;-61
2022/01/11 05:10:23;;;;;;;;;26.25;21.50;;;;;7.18;61.92;102675.97;5061395;28;45345;-61
2022/01/11 05:12:48;;;;;;;;;26.00;23.00;;;;;7.04;61.85;102651.91;5061991;28;45474;-61
2022/01/11 05:15:15;;;;;;;;;31.75;27.25;;;;;7.14;62.25;102669.75;5061778;28;45443;-61
2022/01/11 05:17:42;;;;;;;;;31.25;23.75;;;;;7.01;62.29;102646.56;5064849;28;45190;-61
2022/01/11 05:20:09;;;;;;;;;27.50;24.50;;;;;7.08;62.39;102660.81;5081908;28;45612;-61
2022/01/11 05:22:34;;;;;;;;;32.75;27.00;;;;;7.10;62.26;102667.00;5062538;28;45397;-61
2022/01/11 05:25:00;;;;;;;;;23.50;21.25;;;;;6.99;61.99;102656.28;5073918;28;45462;-62
2022/01/11 05:27:27;;;;;;;;;31.25;25.50;;;;;7.04;62.17;102667.84;5074803;28;46613;-61
2022/01/11 05:29:54;;;;;;;;;29.00;26.00;;;;;7.02;61.88;102662.50;5074154;28;45168;-61
2022/01/11 05:32:19;;;;;;;;;31.25;28.25;;;;;7.06;62.29;102666.09;5080810;27;45529;-61
2022/01/11 05:34:45;;;;;;;;;29.25;28.00;;;;;7.06;61.84;102663.44;5069031;28;45193;-62
2022/01/11 05:37:10;;;;;;;;;31.75;26.50;;;;;7.06;62.13;102666.09;5067239;28;45489;-61
2022/01/11 05:39:36;;;;;;;;;28.50;25.00;;;;;7.07;61.82;102677.59;5072600;28;45227;-61
2022/01/11 05:42:06;;;;;;;;;27.50;20.25;;;;;7.07;62.07;102680.25;5072371;28;45463;-61
2022/01/11 05:44:32;;;;;;;;;23.50;23.50;;;;;7.01;62.09;102686.38;5061350;28;45419;-61
2022/01/11 05:46:57;;;;;;;;;30.50;25.50;;;;;6.95;61.58;102691.59;5061188;28;45354;-61
2022/01/11 05:49:22;;;;;;;;;27.75;26.00;;;;;6.86;61.61;102698.56;5073138;28;45389;-61
2022/01/11 05:51:48;;;;;;;;;30.25;25.25;;;;;6.80;62.21;102689.63;5076307;27;45318;-61
2022/01/11 05:54:13;;;;;;;;;28.25;25.00;;;;;6.85;62.39;102688.84;5060979;28;45260;-61
2022/01/11 05:56:38;;;;;;;;;29.75;25.75;;;;;6.91;61.83;102685.34;5065943;28;45320;-61
2022/01/11 05:59:03;;;;;;;;;29.00;26.75;;;;;6.95;61.82;102691.59;5069019;28;45290;-61
2022/01/11 06:01:29;;;;;;;;;31.00;24.00;;;;;6.96;61.82;102696.06;5061129;28;45299;-61
2022/01/11 06:03:54;;;;;;;;;34.25;29.00;;;;;6.86;62.28;102679.97;5061260;28;45181;-61
2022/01/11 06:06:20;;;;;;;;;26.50;23.25;;;;;6.89;62.33;102692.41;5063716;28;45995;-61
2022/01/11 06:08:45;;;;;;;;;32.00;25.75;;;;;6.90;61.26;102701.25;5060635;28;45303;-61
2022/01/11 06:11:11;;;;;;;;;26.25;24.25;;;;;6.79;61.77;102691.38;5060856;28;45300;-61
2022/01/11 06:13:36;;;;;;;;;40.50;30.50;;;;;6.85;61.78;102701.22;5061063;28;45421;-61
2022/01/11 06:16:02;;;;;;;;;30.75;28.00;;;;;6.88;61.35;102711.84;5071914;28;46525;-61
2022/01/11 06:18:29;;;;;;;;;40.00;32.75;;;;;6.86;62.04;102724.22;5070684;28;45327;-61
2022/01/11 06:20:55;;;;;;;;;35.50;28.25;;;;;6.88;61.94;102730.44;5075868;28;45484;-61
2022/01/11 06:23:20;;;;;;;;;28.75;25.50;;;;;6.73;61.45;102725.78;5061034;28;45264;-61
2022/01/11 06:25:45;;;;;;;;;35.50;31.75;;;;;6.59;61.71;102724.72;5060075;28;45314;-62
2022/01/11 06:28:11;;;;;;;;;29.75;26.00;;;;;6.65;61.39;102730.13;5060642;28;45379;-61
2022/01/11 06:30:36;;;;;;;;;37.50;31.25;;;;;6.68;61.68;102732.78;5071138;28;45827;-61
2022/01/11 06:33:01;;;;;;;;;29.75;26.25;;;;;6.68;61.73;102719.53;5060879;27;45504;-62
2022/01/11 06:35:27;;;;;;;;;25.50;24.00;;;;;6.75;61.39;102725.81;5071445;27;46540;-61
2022/01/11 06:37:53;;;;;;;;;28.50;23.50;;;;;6.74;61.27;102724.06;5069999;28;45258;-61
2022/01/11 06:40:20;;;;;;;;;32.75;25.50;;;;;6.64;61.45;102723.00;5061453;28;45281;-61
2022/01/11 06:42:47;;;;;;;;;30.00;26.00;;;;;6.64;61.42;102729.22;5077604;27;45425;-61
2022/01/11 06:45:14;;;;;;;;;34.75;28.25;;;;;6.60;61.26;102727.38;5075744;28;46043;-61
2022/01/11 06:47:40;;;;;;;;;36.25;27.25;;;;;6.63;61.55;102735.41;5069288;28;45370;-62
2022/01/11 06:50:07;;;;;;;;;35.25;31.25;;;;;6.65;61.33;102757.53;5074802;28;45320;-61
2022/01/11 06:52:32;;;;;;;;;36.00;27.50;;;;;6.65;61.44;102744.28;5069222;28;45508;-61
2022/01/11 06:54:57;;;;;;;;;35.75;29.50;;;;;6.70;61.70;102751.41;5073221;28;45347;-61
2022/01/11 06:57:24;;;;;;;;;37.50;34.75;;;;;6.72;61.59;102749.69;5066721;28;45434;-61
2022/01/11 06:59:49;;;;;;;;;37.25;30.25;;;;;6.71;61.91;102745.22;5061307;28;45436;-61
2022/01/11 07:02:15;;;;;;;;;33.25;30.25;;;;;6.66;61.49;102732.78;5067824;28;45685;-61
2022/01/11 07:04:40;;;;;;;;;42.25;35.50;;;;;6.76;61.33;102738.25;5068817;27;47948;-61
2022/01/11 07:07:07;;;;;;;;;36.25;31.00;;;;;6.65;61.28;102715.09;5088758;27;45317;-61
2022/01/11 07:09:33;;;;;;;;;34.75;31.50;;;;;6.78;61.77;102731.19;5061240;28;45481;-62
2022/01/11 07:11:58;;;;;;;;;29.25;28.50;;;;;6.71;61.66;102724.88;5055973;27;45569;-61
2022/01/11 07:14:23;;;;;;;;;44.50;35.00;;;;;6.69;61.19;102742.56;5073082;27;45987;-63
2022/01/11 07:16:49;;;;;;;;;34.75;25.25;;;;;6.70;61.06;102747.00;5067048;27;45478;-65
2022/01/11 07:19:16;;;;;;;;;36.00;32.25;;;;;6.73;61.51;102759.41;5063871;27;45403;-64
2022/01/11 07:21:44;;;;;;;;;34.50;31.25;;;;;6.65;61.02;102746.94;5071829;27;45339;-65
2022/01/11 07:24:10;;;;;;;;;39.25;30.00;;;;;6.63;61.16;102748.66;5061867;27;47077;-64
2022/01/11 07:26:35;;;;;;;;;33.75;30.00;;;;;6.69;61.41;102753.16;5070573;27;45497;-64
2022/01/11 07:29:03;;;;;;;;;37.00;29.75;;;;;6.63;61.18;102748.66;5077257;27;45430;-64
2022/01/11 07:31:29;;;;;;;;;38.25;34.00;;;;;6.57;61.29;102764.47;5068633;27;45764;-64
2022/01/11 07:33:54;;;;;;;;;34.25;28.75;;;;;6.53;61.80;102767.94;5069090;27;46917;-64
2022/01/11 07:36:20;;;;;;;;;42.00;32.50;;;;;6.56;61.06;102764.44;5064328;27;45394;-65
2022/01/11 07:38:45;;;;;;;;;35.50;33.00;;;;;6.60;61.44;102791.06;5065855;27;45399;-65
2022/01/11 07:41:10;;;;;;;;;38.75;31.50;;;;;6.60;61.38;102795.47;5068822;27;45489;-64
2022/01/11 07:43:36;;;;;;;;;28.25;24.25;;;;;6.52;61.39;102790.06;5068318;28;45338;-65
2022/01/11 07:46:01;;;;;;;;;31.50;30.00;;;;;6.63;61.94;102815.00;5059372;28;45299;-65
2022/01/11 07:48:26;;;;;;;;;34.25;30.00;;;;;6.62;61.50;102794.63;5059661;28;45310;-65
2022/01/11 07:50:52;;;;;;;;;35.75;30.75;;;;;6.55;60.76;102792.75;5074979;27;45598;-65
2022/01/11 07:53:17;;;;;;;;;39.75;36.50;;;;;6.45;61.39;102781.09;5070366;28;45368;-62
2022/01/11 07:55:42;;;;;;;;;34.25;29.75;;;;;6.47;61.64;102784.66;5062079;28;45346;-62
2022/01/11 07:58:08;;;;;;;;;30.25;30.00;;;;;6.50;60.94;102799.75;5070176;28;45637;-63
2022/01/11 08:00:33;;;;;;;;;46.50;38.25;;;;;6.46;61.36;102795.25;5062067;28;45548;-63
2022/01/11 08:02:58;;;;;;;;;16.25;14.50;;;;;6.43;61.06;102805.78;5060587;28;46111;-62
2022/01/11 08:05:24;;;;;;;;;31.25;29.75;;;;;6.40;61.15;102803.06;5071847;27;45294;-63
2022/01/11 08:07:50;;;;;;;;;45.75;38.50;;;;;6.42;61.60;102802.25;5063365;27;45577;-63
2022/01/11 08:10:18;;;;;;;;;40.25;36.00;;;;;6.43;61.70;102809.34;5067014;28;45333;-63
2022/01/11 08:12:44;;;;;;;;;38.75;34.00;;;;;6.47;61.86;102815.59;5058728;28;45994;-63
2022/01/11 08:15:10;;;;;;;;;41.50;36.75;;;;;6.45;61.69;102814.69;5067102;28;45740;-64
2022/01/11 08:17:35;;;;;;;;;45.00;38.25;;;;;6.49;62.07;102817.41;5066562;28;45494;-64
2022/01/11 08:20:01;;;;;;;;;39.50;34.75;;;;;6.52;61.04;102821.88;5057743;28;45579;-64
2022/01/11 08:22:26;;;;;;;;;42.25;34.00;;;;;6.43;61.81;102816.41;5058954;28;46244;-63
2022/01/11 08:24:51;;;;;;;;;33.50;29.75;;;;;6.46;61.23;102822.66;5061996;28;45398;-63
2022/01/11 08:27:19;;;;;;;;;40.75;34.75;;;;;6.42;62.03;102819.94;5063411;28;45439;-64
2022/01/11 08:29:46;;;;;;;;;38.50;33.75;;;;;6.47;61.82;102836.84;5064310;28;45308;-64
2022/01/11 08:32:11;;;;;;;;;46.25;34.75;;;;;6.41;62.01;102823.44;5076435;28;45339;-63
2022/01/11 08:34:37;;;;;;;;;48.25;32.75;;;;;6.48;61.98;102843.91;5066635;28;45321;-63
2022/01/11 08:37:04;;;;;;;;;37.75;35.50;;;;;6.46;61.32;102848.31;5074223;28;45771;-64
2022/01/11 08:39:30;;;;;;;;;41.00;33.50;;;;;6.51;61.30;102853.69;5062335;28;45390;-63
2022/01/11 08:41:55;;;;;;;;;36.75;34.75;;;;;6.44;61.72;102828.81;5067298;28;45233;-61
2022/01/11 08:44:23;;;;;;;;;38.50;33.50;;;;;6.44;61.39;102827.03;5073183;27;45508;-62
2022/01/11 08:46:49;;;;;;;;;33.75;30.00;;;;;6.56;61.79;102849.38;5076412;27;45453;-62
2022/01/11 08:49:16;;;;;;;;;42.50;37.25;;;;;6.57;62.09;102836.13;5076878;27;45395;-62
2022/01/11 08:51:42;;;;;;;;;39.25;33.75;;;;;6.54;61.71;102829.88;5066629;27;45362;-62
2022/01/11 08:54:09;;;;;;;;;39.50;33.25;;;;;6.61;61.76;102837.06;5078510;27;45284;-62
2022/01/11 08:56:34;;;;;;;;;47.25;38.00;;;;;6.60;61.58;102833.53;5068809;27;45576;-62
2022/01/11 08:59:00;;;;;;;;;31.75;26.00;;;;;6.61;61.42;102837.97;5069024;27;45389;-62
2022/01/11 09:01:26;;;;;;;;;40.00;32.75;;;;;6.61;60.87;102832.66;5071322;27;45774;-62
2022/01/11 09:03:52;;;;;;;;;40.00;36.75;;;;;6.59;60.85;102847.66;5070083;27;45381;-62
2022/01/11 09:06:19;;;;;;;;;45.25;39.75;;;;;6.58;61.49;102859.16;5067685;27;45358;-62
2022/01/11 09:08:44;;;;;;;;;43.25;38.00;;;;;6.46;61.50;102840.34;5061187;27;45674;-62
2022/01/11 09:11:10;;;;;;;;;42.75;37.00;;;;;6.55;61.18;102852.88;5077201;27;45203;-62
2022/01/11 09:13:37;;;;;;;;;44.25;36.75;;;;;6.57;60.70;102860.00;5080274;27;45355;-62
2022/01/11 09:16:03;;;;;;;;;34.00;32.00;;;;;6.53;61.22;102857.25;5065268;27;45196;-62
2022/01/11 09:18:29;;;;;;;;;46.00;39.25;;;;;6.45;61.33;102854.50;5071892;27;45343;-62
2022/01/11 09:20:54;;;;;;;;;41.75;36.75;;;;;6.45;61.32;102862.44;5074327;27;45361;-62
2022/01/11 09:23:20;;;;;;;;;34.50;33.75;;;;;6.30;60.59;102855.09;5065721;27;45521;-62
2022/01/11 09:25:46;;;;;;;;;38.25;34.25;;;;;6.35;61.60;102863.13;5069817;27;45748;-62
2022/01/11 09:28:12;;;;;;;;;25.50;25.50;;;;;6.35;61.70;102865.78;5064519;27;45413;-62
2022/01/11 09:30:37;;;;;;;;;43.50;38.25;;;;;6.34;61.63;102861.34;5072186;27;45331;-62
2022/01/11 09:33:03;;;;;;;;;43.25;37.50;;;;;6.32;61.37;102860.44;5073900;27;45465;-62
2022/01/11 09:35:28;;;;;;;;;36.25;31.75;;;;;6.43;61.37;102881.00;5080313;27;45247;-61
2022/01/11 09:37:54;;;;;;;;;40.50;33.50;;;;;6.43;61.40;102888.03;5075221;27;45432;-62
2022/01/11 09:40:19;;;;;;;;;42.00;36.75;;;;;6.29;61.15;102867.44;5068975;27;46425;-62
2022/01/11 09:42:45;;;;;;;;;34.00;33.25;;;;;6.42;61.42;102892.47;5075573;27;45279;-62
2022/01/11 09:45:11;;;;;;;;;41.50;34.25;;;;;6.39;61.35;102891.50;5074282;27;45447;-62
2022/01/11 09:47:41;;;;;;;;;44.25;35.00;;;;;6.49;61.15;102902.31;5071081;27;45370;-62
2022/01/11 09:50:09;;;;;;;;;49.75;36.00;;;;;6.45;60.83;102892.53;5073432;27;45342;-62
2022/01/11 09:52:36;;;;;;;;;43.00;38.00;;;;;6.39;61.09;102887.09;5067069;27;45306;-62
2022/01/11 09:55:04;;;;;;;;;46.25;39.00;;;;;6.49;61.32;102896.13;5072237;27;45355;-61
2022/01/11 09:57:29;;;;;;;;;45.75;39.50;;;;;6.51;61.08;102905.00;5076390;27;45535;-65
2022/01/11 09:59:55;;;;;;;;;45.75;38.00;;;;;6.52;61.72;102898.84;5073716;27;45373;-62
2022/01/11 10:02:20;;;;;;;;;37.75;35.00;;;;;6.46;61.31;102893.41;5067195;27;45364;-62
2022/01/11 10:04:45;;;;;;;;;38.00;32.25;;;;;6.52;61.09;102913.88;5069576;27;45381;-62
2022/01/11 10:07:13;;;;;;;;;44.75;38.50;;;;;6.46;60.87;102909.31;5063683;27;45495;-62
2022/01/11 10:09:48;;;;;;;;;47.25;38.25;;;;;6.43;61.54;102904.88;5066482;27;45409;-62
2022/01/11 10:12:14;;;;;;;;;47.50;39.50;;;;;6.42;61.08;102912.78;5070087;27;45521;-62
2022/01/11 10:14:48;;;;;;;;;38.50;33.75;;;;;6.36;60.80;102894.09;5066476;27;45252;-61
2022/01/11 10:17:24;;;;;;;;;52.00;39.50;;;;;6.36;61.73;102894.09;5063246;27;45634;-62
2022/01/11 10:20:07;;;;;;;;;49.75;36.50;;;;;6.38;61.04;102910.94;5071517;27;47503;-62
2022/01/11 10:22:34;;;;;;;;;46.75;40.00;;;;;6.30;61.94;102914.34;5070454;27;45410;-62
2022/01/11 10:25:02;;;;;;;;;48.75;41.25;;;;;6.35;61.12;102910.88;5070702;27;45731;-62
2022/01/11 10:27:33;;;;;;;;;46.50;39.50;;;;;6.32;61.20;102913.47;5066828;27;45455;-61
2022/01/11 10:30:20;;;;;;;;;45.50;37.50;;;;;6.28;62.04;102909.84;5073301;27;46160;-62
2022/01/11 10:32:48;;;;;;;;;43.75;37.25;;;;;6.28;61.17;102925.75;5072742;27;45395;-62
2022/01/11 10:35:21;;;;;;;;;41.00;36.25;;;;;6.27;61.90;102924.00;5074553;27;45496;-61
2022/01/11 10:37:50;;;;;;;;;44.25;38.00;;;;;6.28;61.65;102924.03;5066237;27;45481;-61
2022/01/11 10:40:18;;;;;;;;;39.75;35.25;;;;;6.29;61.69;102914.31;5067902;27;45456;-62
2022/01/11 10:43:10;;;;;;;;;53.00;40.75;;;;;6.30;61.39;102924.06;5064105;27;45388;-62
2022/01/11 10:45:41;;;;;;;;;43.25;38.50;;;;;6.29;61.33;102932.88;5057836;27;45604;-62
2022/01/11 10:48:22;;;;;;;;;51.00;40.25;;;;;6.23;61.76;102916.81;5070383;27;45325;-61
2022/01/11 10:50:50;;;;;;;;;39.75;36.75;;;;;6.29;61.68;102931.09;5062703;27;46217;-61
2022/01/11 10:53:17;;;;;;;;;43.50;38.00;;;;;6.34;62.24;102931.19;5058895;27;45480;-61
2022/01/11 10:55:47;;;;;;;;;35.75;30.75;;;;;6.39;61.49;102920.69;5065612;27;46000;-62
2022/01/11 10:58:13;;;;;;;;;53.75;40.00;;;;;6.38;61.51;102924.19;5069479;27;45543;-62
2022/01/11 11:00:38;;;;;;;;;46.25;40.00;;;;;6.44;62.00;102930.50;5064666;27;46291;-61
2022/01/11 11:03:09;;;;;;;;;48.33;39.67;;;;;6.45;61.70;102924.34;5067440;27;45259;-61
2022/01/11 11:05:48;;;;;;;;;44.00;35.75;;;;;6.52;61.90;102920.06;5071484;27;45526;-62
2022/01/11 11:08:15;;;;;;;;;45.75;38.00;;;;;6.50;61.54;102916.50;5064339;27;45432;-62
2022/01/11 11:10:43;;;;;;;;;42.25;37.25;;;;;6.57;62.32;102923.69;5065486;27;46180;-61
2022/01/11 11:13:17;;;;;;;;;44.25;39.75;;;;;6.52;61.73;102919.19;5058894;27;45931;-61
2022/01/11 11:15:42;;;;;;;;;52.75;41.50;;;;;6.58;61.86;102921.94;5058311;28;45444;-62